Airfield :
LOGIN :

Register | Disclaimer

   EN    FR    IT 

 










Legend :    VFR   Marginal VFR   IFR   Intensive IFR   Very Intensive IFR
Visi :
Ceiling :
>= 8 km
>= 3000ft
5 to 8 km
1000 to 3000 ft
1500m to 5 km
500 to 1000 ft
800 to 1500m
200 to 500 ft
< 800m
< 200 ft
Symbols :   Thunderstorms  Fog  Heavy snow  Heavy precipitations  Wind > 20 kt
SIGMETs :     Misc.  Thunderstorms  Icing  Turbulence  Mountain Waves  Volcanic Ashes







- Airport Elevation : 46 ft
- IATA code : SNN


EINN - Shannon

CURRENT METAR :
  • 221330Z 14018KT 9999 FEW028 21/07 Q0997 NOSIG

EXPIRED METARs :
  • 221300Z 13017KT 9999 FEW030 20/08 Q0997 NOSIG
  • 221230Z 13018KT 9999 FEW030 20/07 Q0997 NOSIG
  • 221200Z 13018KT 9999 FEW030 20/07 Q0997 NOSIG
  • 221130Z 14018KT CAVOK 19/08 Q0997 NOSIG
  • 221100Z 13018KT CAVOK 18/08 Q0998 NOSIG

TAF TAF EINN
Valid from the 22 at 12:00 until the 23 at 12:00 UTC


221100Z 2212/2312 14015KT 9999 FEW020 SCT040
TEMPO 2212/2216 15017G27KT
PROB30
TEMPO 2220/2305 5000 -RA BR BKN009
BECMG 2300/2303 12008KT
TEMPO 2303/2306 VRB03KT
No reported NOTAMs for that airfield.



MET'MAP, your aeronautical weather chart ! - Copyright ORBIFLY December 2007 - Disclaimer

ORBIFLY MET'MAP TEAM :

Programming & Development : Alexandra Zaïnal
Concept & Development : Baudouin d'Aumeries
Co-Development & Prog : Marc-Olivier Méhu
Technical & hardware support : Manuel Goepfert

Contact : metmap@orbifly.com




SOURCES & CREDITS :

   NOAA